sensor_id;sensor_type;location;lat;lon;timestamp;pressure;altitude;pressure_sealevel;temperature;humidity
78485;BME280;67773;50.806;8.776;2024-01-30T00:00:31;101041.25;;;-0.32;100.00
78485;BME280;67773;50.806;8.776;2024-01-30T00:02:56;101031.63;;;-0.35;100.00
78485;BME280;67773;50.806;8.776;2024-01-30T00:05:21;101037.91;;;-0.22;100.00
78485;BME280;67773;50.806;8.776;2024-01-30T00:07:47;101040.50;;;-0.23;100.00
78485;BME280;67773;50.806;8.776;2024-01-30T00:10:12;101047.31;;;-0.33;100.00
78485;BME280;67773;50.806;8.776;2024-01-30T00:12:37;101037.56;;;-0.45;100.00
78485;BME280;67773;50.806;8.776;2024-01-30T00:15:03;101040.03;;;-0.54;100.00
78485;BME280;67773;50.806;8.776;2024-01-30T00:17:30;101042.53;;;-0.62;100.00
78485;BME280;67773;50.806;8.776;2024-01-30T00:19:55;101047.94;;;-0.51;100.00
78485;BME280;67773;50.806;8.776;2024-01-30T00:22:20;101036.44;;;-0.62;100.00
78485;BME280;67773;50.806;8.776;2024-01-30T00:24:46;101041.56;;;-0.68;100.00
78485;BME280;67773;50.806;8.776;2024-01-30T00:27:11;101043.13;;;-0.78;100.00
78485;BME280;67773;50.806;8.776;2024-01-30T00:29:36;101046.72;;;-0.71;100.00
78485;BME280;67773;50.806;8.776;2024-01-30T00:32:02;101040.56;;;-0.75;100.00
78485;BME280;67773;50.806;8.776;2024-01-30T00:34:27;101046.72;;;-0.71;100.00
78485;BME280;67773;50.806;8.776;2024-01-30T00:36:52;101035.47;;;-0.69;100.00
78485;BME280;67773;50.806;8.776;2024-01-30T00:39:18;101036.44;;;-0.62;100.00
78485;BME280;67773;50.806;8.776;2024-01-30T00:41:44;101034.78;;;-0.55;100.00
78485;BME280;67773;50.806;8.776;2024-01-30T00:44:10;101039.19;;;-0.53;100.00
78485;BME280;67773;50.806;8.776;2024-01-30T00:46:35;101034.59;;;-0.69;100.00
78485;BME280;67773;50.806;8.776;2024-01-30T00:49:01;101032.88;;;-0.67;100.00
78485;BME280;67773;50.806;8.776;2024-01-30T00:51:26;101037.91;;;-0.78;100.00
78485;BME280;67773;50.806;8.776;2024-01-30T00:53:51;101034.56;;;-0.71;100.00
78485;BME280;67773;50.806;8.776;2024-01-30T00:56:17;101031.75;;;-0.83;100.00
78485;BME280;67773;50.806;8.776;2024-01-30T00:58:43;101043.09;;;-0.79;100.00
78485;BME280;67773;50.806;8.776;2024-01-30T01:01:09;101042.19;;;-0.83;100.00
78485;BME280;67773;50.806;8.776;2024-01-30T01:03:34;101035.97;;;-0.90;100.00
78485;BME280;67773;50.806;8.776;2024-01-30T01:05:59;101035.28;;;-0.79;100.00
78485;BME280;67773;50.806;8.776;2024-01-30T01:08:25;101038.78;;;-0.77;100.00
78485;BME280;67773;50.806;8.776;2024-01-30T01:10:50;101034.47;;;-0.75;100.00
78485;BME280;67773;50.806;8.776;2024-01-30T01:13:15;101032.88;;;-0.67;100.00
78485;BME280;67773;50.806;8.776;2024-01-30T01:15:41;101036.34;;;-0.68;100.00
78485;BME280;67773;50.806;8.776;2024-01-30T01:18:06;101035.47;;;-0.69;100.00
78485;BME280;67773;50.806;8.776;2024-01-30T01:20:31;101038.66;;;-0.83;100.00
78485;BME280;67773;50.806;8.776;2024-01-30T01:22:57;101031.69;;;-0.84;100.00
78485;BME280;67773;50.806;8.776;2024-01-30T01:25:22;101032.63;;;-0.82;100.00
78485;BME280;67773;50.806;8.776;2024-01-30T01:27:47;101036.91;;;-0.86;100.00
78485;BME280;67773;50.806;8.776;2024-01-30T01:30:18;101031.47;;;-0.98;100.00
78485;BME280;67773;50.806;8.776;2024-01-30T01:32:48;101033.38;;;-0.88;100.00
78485;BME280;67773;50.806;8.776;2024-01-30T01:35:23;101026.56;;;-0.81;100.00
78485;BME280;67773;50.806;8.776;2024-01-30T01:37:50;101024.56;;;-0.95;100.00
78485;BME280;67773;50.806;8.776;2024-01-30T01:40:22;101022.06;;;-0.90;100.00
78485;BME280;67773;50.806;8.776;2024-01-30T01:42:47;101024.63;;;-0.93;100.00
78485;BME280;67773;50.806;8.776;2024-01-30T01:45:13;101025.44;;;-0.94;100.00
78485;BME280;67773;50.806;8.776;2024-01-30T01:47:38;101026.44;;;-0.89;100.00
78485;BME280;67773;50.806;8.776;2024-01-30T01:50:04;101032.47;;;-0.92;100.00
78485;BME280;67773;50.806;8.776;2024-01-30T01:52:30;101019.59;;;-0.82;100.00
78485;BME280;67773;50.806;8.776;2024-01-30T01:54:55;101021.34;;;-0.81;100.00
78485;BME280;67773;50.806;8.776;2024-01-30T01:57:20;101025.53;;;-0.91;100.00
78485;BME280;67773;50.806;8.776;2024-01-30T01:59:46;101028.16;;;-0.90;100.00
78485;BME280;67773;50.806;8.776;2024-01-30T02:02:12;101015.97;;;-0.91;100.00
78485;BME280;67773;50.806;8.776;2024-01-30T02:04:41;101013.25;;;-0.97;100.00
78485;BME280;67773;50.806;8.776;2024-01-30T02:07:07;101014.03;;;-1.04;100.00
78485;BME280;67773;50.806;8.776;2024-01-30T02:09:32;101028.81;;;-1.01;100.00
78485;BME280;67773;50.806;8.776;2024-01-30T02:11:57;101020.19;;;-0.99;100.00
78485;BME280;67773;50.806;8.776;2024-01-30T02:14:23;101012.34;;;-1.00;100.00
78485;BME280;67773;50.806;8.776;2024-01-30T02:16:48;101011.47;;;-1.01;100.00
78485;BME280;67773;50.806;8.776;2024-01-30T02:19:13;101013.22;;;-1.00;100.00
78485;BME280;67773;50.806;8.776;2024-01-30T02:21:39;101011.53;;;-0.95;100.00
78485;BME280;67773;50.806;8.776;2024-01-30T02:24:04;101013.47;;;-0.84;100.00
78485;BME280;67773;50.806;8.776;2024-01-30T02:26:30;101008.19;;;-0.88;100.00
78485;BME280;67773;50.806;8.776;2024-01-30T02:28:56;101010.78;;;-0.89;100.00
78485;BME280;67773;50.806;8.776;2024-01-30T02:31:21;101011.53;;;-0.95;100.00
78485;BME280;67773;50.806;8.776;2024-01-30T02:33:46;101012.16;;;-1.09;100.00
78485;BME280;67773;50.806;8.776;2024-01-30T02:36:12;101004.38;;;-1.08;100.00
78485;BME280;67773;50.806;8.776;2024-01-30T02:38:37;101008.66;;;-1.13;100.00
78485;BME280;67773;50.806;8.776;2024-01-30T02:41:02;101008.56;;;-1.16;100.00
78485;BME280;67773;50.806;8.776;2024-01-30T02:43:28;101005.22;;;-1.10;100.00
78485;BME280;67773;50.806;8.776;2024-01-30T02:45:53;101009.44;;;-1.16;100.00
78485;BME280;67773;50.806;8.776;2024-01-30T02:48:18;101008.66;;;-1.13;100.00
78485;BME280;67773;50.806;8.776;2024-01-30T02:50:43;101007.78;;;-1.12;100.00
78485;BME280;67773;50.806;8.776;2024-01-30T02:53:09;101000.72;;;-1.19;100.00
78485;BME280;67773;50.806;8.776;2024-01-30T02:55:34;100998.09;;;-1.19;100.00
78485;BME280;67773;50.806;8.776;2024-01-30T02:58:00;100995.44;;;-1.22;100.00
78485;BME280;67773;50.806;8.776;2024-01-30T03:00:25;100997.41;;;-1.09;100.00
78485;BME280;67773;50.806;8.776;2024-01-30T03:02:51;100993.91;;;-1.11;100.00
78485;BME280;67773;50.806;8.776;2024-01-30T03:05:16;101001.78;;;-1.06;100.00
78485;BME280;67773;50.806;8.776;2024-01-30T03:07:41;100993.91;;;-1.11;100.00
78485;BME280;67773;50.806;8.776;2024-01-30T03:10:07;100985.19;;;-1.13;100.00
78485;BME280;67773;50.806;8.776;2024-01-30T03:12:32;100984.19;;;-1.21;100.00
78485;BME280;67773;50.806;8.776;2024-01-30T03:14:58;100992.03;;;-1.18;100.00
78485;BME280;67773;50.806;8.776;2024-01-30T03:17:23;100989.47;;;-1.17;100.00
78485;BME280;67773;50.806;8.776;2024-01-30T03:19:49;100996.53;;;-1.11;100.00
78485;BME280;67773;50.806;8.776;2024-01-30T03:22:14;100985.06;;;-1.21;100.00
78485;BME280;67773;50.806;8.776;2024-01-30T03:24:40;100980.56;;;-1.28;100.00
78485;BME280;67773;50.806;8.776;2024-01-30T03:27:05;100988.47;;;-1.25;100.00
78485;BME280;67773;50.806;8.776;2024-01-30T03:29:30;100979.84;;;-1.21;100.00
78485;BME280;67773;50.806;8.776;2024-01-30T03:31:56;100978.06;;;-1.23;100.00
78485;BME280;67773;50.806;8.776;2024-01-30T03:34:21;100974.44;;;-1.31;100.00
78485;BME280;67773;50.806;8.776;2024-01-30T03:36:46;100977.91;;;-1.32;100.00
78485;BME280;67773;50.806;8.776;2024-01-30T03:39:12;100984.09;;;-1.26;100.00
78485;BME280;67773;50.806;8.776;2024-01-30T03:41:37;100981.53;;;-1.24;100.00
78485;BME280;67773;50.806;8.776;2024-01-30T03:44:02;100977.28;;;-1.18;100.00
78485;BME280;67773;50.806;8.776;2024-01-30T03:46:28;100986.06;;;-1.12;100.00
78485;BME280;67773;50.806;8.776;2024-01-30T03:48:53;100971.28;;;-1.13;100.00
78485;BME280;67773;50.806;8.776;2024-01-30T03:51:19;100971.16;;;-1.21;100.00
78485;BME280;67773;50.806;8.776;2024-01-30T03:53:44;100972.06;;;-1.19;100.00
78485;BME280;67773;50.806;8.776;2024-01-30T03:56:11;100971.25;;;-1.15;100.00
78485;BME280;67773;50.806;8.776;2024-01-30T03:58:38;100966.78;;;-1.22;100.00
78485;BME280;67773;50.806;8.776;2024-01-30T04:01:04;100961.56;;;-1.24;100.00
78485;BME280;67773;50.806;8.776;2024-01-30T04:03:29;100966.66;;;-1.30;100.00
78485;BME280;67773;50.806;8.776;2024-01-30T04:05:54;100969.41;;;-1.22;100.00
78485;BME280;67773;50.806;8.776;2024-01-30T04:08:20;100967.75;;;-1.17;100.00
78485;BME280;67773;50.806;8.776;2024-01-30T04:10:46;100972.00;;;-1.24;100.00
78485;BME280;67773;50.806;8.776;2024-01-30T04:13:12;100969.44;;;-1.19;100.00
78485;BME280;67773;50.806;8.776;2024-01-30T04:15:37;100964.19;;;-1.22;100.00
78485;BME280;67773;50.806;8.776;2024-01-30T04:18:02;100963.38;;;-1.20;100.00
78485;BME280;67773;50.806;8.776;2024-01-30T04:20:29;100966.69;;;-1.27;100.00
78485;BME280;67773;50.806;8.776;2024-01-30T04:22:54;100964.94;;;-1.29;100.00
78485;BME280;67773;50.806;8.776;2024-01-30T04:25:20;100971.19;;;-1.20;100.00
78485;BME280;67773;50.806;8.776;2024-01-30T04:27:46;100973.81;;;-1.18;100.00
78485;BME280;67773;50.806;8.776;2024-01-30T04:30:11;100975.38;;;-1.28;100.00
78485;BME280;67773;50.806;8.776;2024-01-30T04:32:37;100967.53;;;-1.29;100.00
78485;BME280;67773;50.806;8.776;2024-01-30T04:35:03;100966.72;;;-1.25;100.00
78485;BME280;67773;50.806;8.776;2024-01-30T04:37:28;100976.31;;;-1.24;100.00
78485;BME280;67773;50.806;8.776;2024-01-30T04:39:54;100970.13;;;-1.29;100.00
78485;BME280;67773;50.806;8.776;2024-01-30T04:42:19;100973.63;;;-1.27;100.00
78485;BME280;67773;50.806;8.776;2024-01-30T04:44:44;100974.50;;;-1.28;100.00
78485;BME280;67773;50.806;8.776;2024-01-30T04:47:10;100972.91;;;-1.20;100.00
78485;BME280;67773;50.806;8.776;2024-01-30T04:49:38;100969.50;;;-1.16;100.00
78485;BME280;67773;50.806;8.776;2024-01-30T04:52:04;100971.25;;;-1.15;100.00
78485;BME280;67773;50.806;8.776;2024-01-30T04:54:29;100969.47;;;-1.18;100.00
78485;BME280;67773;50.806;8.776;2024-01-30T04:56:55;100967.91;;;-1.08;100.00
78485;BME280;67773;50.806;8.776;2024-01-30T04:59:20;100973.94;;;-1.10;100.00
78485;BME280;67773;50.806;8.776;2024-01-30T05:01:46;100969.50;;;-1.16;100.00
78485;BME280;67773;50.806;8.776;2024-01-30T05:04:11;100965.22;;;-1.12;100.00
78485;BME280;67773;50.806;8.776;2024-01-30T05:06:36;100971.25;;;-1.15;100.00
78485;BME280;67773;50.806;8.776;2024-01-30T05:09:02;100967.69;;;-1.20;100.00
78485;BME280;67773;50.806;8.776;2024-01-30T05:11:29;100968.50;;;-1.24;100.00
78485;BME280;67773;50.806;8.776;2024-01-30T05:13:54;100973.66;;;-1.26;100.00
78485;BME280;67773;50.806;8.776;2024-01-30T05:16:20;100965.81;;;-1.27;100.00
78485;BME280;67773;50.806;8.776;2024-01-30T05:18:45;100974.44;;;-1.31;100.00
78485;BME280;67773;50.806;8.776;2024-01-30T05:21:10;100969.41;;;-1.22;100.00
78485;BME280;67773;50.806;8.776;2024-01-30T05:23:36;100973.72;;;-1.24;100.00
78485;BME280;67773;50.806;8.776;2024-01-30T05:26:01;100974.44;;;-1.31;100.00
78485;BME280;67773;50.806;8.776;2024-01-30T05:28:29;100976.19;;;-1.30;100.00
78485;BME280;67773;50.806;8.776;2024-01-30T05:30:55;100988.50;;;-1.23;100.00
78485;BME280;67773;50.806;8.776;2024-01-30T05:33:20;100982.44;;;-1.22;100.00
78485;BME280;67773;50.806;8.776;2024-01-30T05:35:45;100980.69;;;-1.22;100.00
78485;BME280;67773;50.806;8.776;2024-01-30T05:38:11;100983.47;;;-1.12;100.00
78485;BME280;67773;50.806;8.776;2024-01-30T05:40:37;100980.88;;;-1.12;100.00
78485;BME280;67773;50.806;8.776;2024-01-30T05:43:03;100992.16;;;-1.12;100.00
78485;BME280;67773;50.806;8.776;2024-01-30T05:45:28;100982.47;;;-1.19;100.00
78485;BME280;67773;50.806;8.776;2024-01-30T05:47:54;100984.19;;;-1.21;100.00
78485;BME280;67773;50.806;8.776;2024-01-30T05:50:19;100980.00;;;-1.13;100.00
78485;BME280;67773;50.806;8.776;2024-01-30T05:52:45;100978.06;;;-1.23;100.00
78485;BME280;67773;50.806;8.776;2024-01-30T05:55:11;100973.63;;;-1.27;100.00
78485;BME280;67773;50.806;8.776;2024-01-30T05:57:37;100981.44;;;-1.27;100.00
78485;BME280;67773;50.806;8.776;2024-01-30T06:00:04;100982.31;;;-1.28;100.00
78485;BME280;67773;50.806;8.776;2024-01-30T06:02:30;100982.47;;;-1.19;100.00
78485;BME280;67773;50.806;8.776;2024-01-30T06:04:55;100974.53;;;-1.25;100.00
78485;BME280;67773;50.806;8.776;2024-01-30T06:07:20;100977.97;;;-1.28;100.00
78485;BME280;67773;50.806;8.776;2024-01-30T06:09:47;100982.28;;;-1.30;100.00
78485;BME280;67773;50.806;8.776;2024-01-30T06:12:12;100982.34;;;-1.25;100.00
78485;BME280;67773;50.806;8.776;2024-01-30T06:14:37;100986.75;;;-1.24;100.00
78485;BME280;67773;50.806;8.776;2024-01-30T06:17:03;100985.81;;;-1.26;100.00
78485;BME280;67773;50.806;8.776;2024-01-30T06:19:28;100977.94;;;-1.29;100.00
78485;BME280;67773;50.806;8.776;2024-01-30T06:21:54;100983.84;;;-1.39;100.00
78485;BME280;67773;50.806;8.776;2024-01-30T06:24:19;100972.66;;;-1.34;100.00
78485;BME280;67773;50.806;8.776;2024-01-30T06:26:44;100971.88;;;-1.30;100.00
78485;BME280;67773;50.806;8.776;2024-01-30T06:29:10;100972.75;;;-1.28;100.00
78485;BME280;67773;50.806;8.776;2024-01-30T06:31:42;100971.94;;;-1.25;100.00
78485;BME280;67773;50.806;8.776;2024-01-30T06:34:08;100971.13;;;-1.24;100.00
78485;BME280;67773;50.806;8.776;2024-01-30T06:36:34;100970.25;;;-1.23;100.00
78485;BME280;67773;50.806;8.776;2024-01-30T06:39:00;100967.66;;;-1.23;100.00
78485;BME280;67773;50.806;8.776;2024-01-30T06:41:25;100960.72;;;-1.21;100.00
78485;BME280;67773;50.806;8.776;2024-01-30T06:43:51;100962.44;;;-1.23;100.00
78485;BME280;67773;50.806;8.776;2024-01-30T06:46:17;100960.63;;;-1.27;100.00
78485;BME280;67773;50.806;8.776;2024-01-30T06:48:42;100970.25;;;-1.25;100.00
78485;BME280;67773;50.806;8.776;2024-01-30T06:51:10;100964.13;;;-1.25;100.00
78485;BME280;67773;50.806;8.776;2024-01-30T06:53:35;100964.19;;;-1.22;100.00
78485;BME280;67773;50.806;8.776;2024-01-30T06:56:01;100969.47;;;-1.18;100.00
78485;BME280;67773;50.806;8.776;2024-01-30T06:58:26;100965.91;;;-1.23;100.00
78485;BME280;67773;50.806;8.776;2024-01-30T07:00:51;100978.00;;;-1.26;100.00
78485;BME280;67773;50.806;8.776;2024-01-30T07:03:16;100979.53;;;-1.37;100.00
78485;BME280;67773;50.806;8.776;2024-01-30T07:05:42;100983.78;;;-1.42;100.00
78485;BME280;67773;50.806;8.776;2024-01-30T07:08:07;100975.31;;;-1.32;100.00
78485;BME280;67773;50.806;8.776;2024-01-30T07:10:33;100980.59;;;-1.26;100.00
78485;BME280;67773;50.806;8.776;2024-01-30T07:13:00;100976.25;;;-1.26;100.00
78485;BME280;67773;50.806;8.776;2024-01-30T07:15:25;100974.66;;;-1.19;100.00
78485;BME280;67773;50.806;8.776;2024-01-30T07:17:51;100970.19;;;-1.26;100.00
78485;BME280;67773;50.806;8.776;2024-01-30T07:20:16;100974.66;;;-1.19;100.00
78485;BME280;67773;50.806;8.776;2024-01-30T07:22:45;100971.19;;;-1.18;100.00
78485;BME280;67773;50.806;8.776;2024-01-30T07:25:10;100975.34;;;-1.29;100.00
78485;BME280;67773;50.806;8.776;2024-01-30T07:27:35;100970.78;;;-1.41;100.00
78485;BME280;67773;50.806;8.776;2024-01-30T07:30:01;100973.44;;;-1.38;100.00
78485;BME280;67773;50.806;8.776;2024-01-30T07:32:26;100978.81;;;-1.29;100.00
78485;BME280;67773;50.806;8.776;2024-01-30T07:34:51;100981.38;;;-1.33;100.00
78485;BME280;67773;50.806;8.776;2024-01-30T07:37:16;100979.69;;;-1.28;100.00
78485;BME280;67773;50.806;8.776;2024-01-30T07:39:42;100977.06;;;-1.31;100.00
78485;BME280;67773;50.806;8.776;2024-01-30T07:42:08;100981.44;;;-1.27;100.00
78485;BME280;67773;50.806;8.776;2024-01-30T07:44:33;100980.06;;;-1.07;100.00
78485;BME280;67773;50.806;8.776;2024-01-30T07:46:59;100977.59;;;-1.01;100.00
78485;BME280;67773;50.806;8.776;2024-01-30T07:49:24;100982.97;;;-0.90;100.00
78485;BME280;67773;50.806;8.776;2024-01-30T07:51:50;100986.47;;;-0.88;100.00
78485;BME280;67773;50.806;8.776;2024-01-30T07:54:15;100985.72;;;-0.81;100.00
78485;BME280;67773;50.806;8.776;2024-01-30T07:56:41;100981.41;;;-0.79;100.00
78485;BME280;67773;50.806;8.776;2024-01-30T07:59:10;100992.00;;;-0.68;100.00
78485;BME280;67773;50.806;8.776;2024-01-30T08:01:35;100987.81;;;-0.60;100.00
78485;BME280;67773;50.806;8.776;2024-01-30T08:04:00;101000.91;;;-0.54;100.00
78485;BME280;67773;50.806;8.776;2024-01-30T08:06:25;100997.56;;;-0.45;100.00
78485;BME280;67773;50.806;8.776;2024-01-30T08:08:51;100997.59;;;-0.42;100.00
78485;BME280;67773;50.806;8.776;2024-01-30T08:11:20;101002.94;;;-0.35;100.00
78485;BME280;67773;50.806;8.776;2024-01-30T08:13:45;101005.69;;;-0.25;100.00
78485;BME280;67773;50.806;8.776;2024-01-30T08:16:10;101007.47;;;-0.21;100.00
78485;BME280;67773;50.806;8.776;2024-01-30T08:18:35;101008.31;;;-0.24;100.00
78485;BME280;67773;50.806;8.776;2024-01-30T08:21:01;101007.47;;;-0.21;100.00
78485;BME280;67773;50.806;8.776;2024-01-30T08:23:26;101013.66;;;-0.15;100.00
78485;BME280;67773;50.806;8.776;2024-01-30T08:25:51;101011.03;;;-0.16;100.00
78485;BME280;67773;50.806;8.776;2024-01-30T08:28:17;101003.34;;;-0.07;100.00
78485;BME280;67773;50.806;8.776;2024-01-30T08:30:42;101003.38;;;-0.04;100.00
78485;BME280;67773;50.806;8.776;2024-01-30T08:33:07;101000.78;;;-0.03;100.00
78485;BME280;67773;50.806;8.776;2024-01-30T08:35:33;100999.16;;;0.07;100.00
78485;BME280;67773;50.806;8.776;2024-01-30T08:37:59;100993.06;;;0.05;100.00
78485;BME280;67773;50.806;8.776;2024-01-30T08:40:24;100991.34;;;0.07;100.00
78485;BME280;67773;50.806;8.776;2024-01-30T08:42:50;100995.78;;;0.13;100.00
78485;BME280;67773;50.806;8.776;2024-01-30T08:45:15;100999.16;;;0.07;100.00
78485;BME280;67773;50.806;8.776;2024-01-30T08:47:40;101006.22;;;0.14;100.00
78485;BME280;67773;50.806;8.776;2024-01-30T08:50:06;101002.66;;;0.06;100.00
78485;BME280;67773;50.806;8.776;2024-01-30T08:52:32;101004.66;;;0.28;100.00
78485;BME280;67773;50.806;8.776;2024-01-30T08:54:59;101007.44;;;0.42;100.00
78485;BME280;67773;50.806;8.776;2024-01-30T08:57:24;101015.38;;;0.51;100.00
78485;BME280;67773;50.806;8.776;2024-01-30T08:59:53;101012.81;;;0.56;100.00
78485;BME280;67773;50.806;8.776;2024-01-30T09:02:19;101018.19;;;0.70;100.00
78485;BME280;67773;50.806;8.776;2024-01-30T09:04:44;101010.44;;;0.76;100.00
78485;BME280;67773;50.806;8.776;2024-01-30T09:07:09;101008.72;;;0.82;100.00
78485;BME280;67773;50.806;8.776;2024-01-30T09:09:35;101008.00;;;0.96;100.00
78485;BME280;67773;50.806;8.776;2024-01-30T09:12:00;101004.56;;;1.03;100.00
78485;BME280;67773;50.806;8.776;2024-01-30T09:14:32;101012.56;;;1.18;100.00
78485;BME280;67773;50.806;8.776;2024-01-30T09:16:57;101016.09;;;1.23;100.00
78485;BME280;67773;50.806;8.776;2024-01-30T09:19:22;101018.66;;;1.15;100.00
78485;BME280;67773;50.806;8.776;2024-01-30T09:21:48;101016.88;;;1.13;100.00
78485;BME280;67773;50.806;8.776;2024-01-30T09:24:13;101021.31;;;1.25;100.00
78485;BME280;67773;50.806;8.776;2024-01-30T09:26:38;101011.75;;;1.25;100.00
78485;BME280;67773;50.806;8.776;2024-01-30T09:29:03;101012.81;;;1.49;100.00
78485;BME280;67773;50.806;8.776;2024-01-30T09:31:29;101011.09;;;1.54;100.00
78485;BME280;67773;50.806;8.776;2024-01-30T09:33:54;101008.53;;;1.61;100.00
78485;BME280;67773;50.806;8.776;2024-01-30T09:36:20;101011.22;;;1.72;100.00
78485;BME280;67773;50.806;8.776;2024-01-30T09:38:45;101011.22;;;1.75;100.00
78485;BME280;67773;50.806;8.776;2024-01-30T09:41:11;101016.50;;;1.80;100.00
78485;BME280;67773;50.806;8.776;2024-01-30T09:43:37;101013.91;;;1.86;100.00
78485;BME280;67773;50.806;8.776;2024-01-30T09:46:03;101008.75;;;1.96;100.00
78485;BME280;67773;50.806;8.776;2024-01-30T09:48:30;101002.69;;;2.07;99.50
78485;BME280;67773;50.806;8.776;2024-01-30T09:50:57;101007.13;;;2.23;100.00
78485;BME280;67773;50.806;8.776;2024-01-30T09:53:23;101000.22;;;2.45;99.01
78485;BME280;67773;50.806;8.776;2024-01-30T09:55:50;100997.72;;;2.89;96.38
78485;BME280;67773;50.806;8.776;2024-01-30T09:58:16;101003.88;;;3.05;95.04
78485;BME280;67773;50.806;8.776;2024-01-30T10:00:41;101012.63;;;3.25;93.17
78485;BME280;67773;50.806;8.776;2024-01-30T10:03:07;101010.00;;;3.14;92.29
78485;BME280;67773;50.806;8.776;2024-01-30T10:05:35;101009.13;;;3.03;93.71
78485;BME280;67773;50.806;8.776;2024-01-30T10:08:00;101013.47;;;3.04;93.96
78485;BME280;67773;50.806;8.776;2024-01-30T10:10:26;101014.34;;;3.18;94.25
78485;BME280;67773;50.806;8.776;2024-01-30T10:12:51;101003.84;;;3.09;94.75
78485;BME280;67773;50.806;8.776;2024-01-30T10:15:17;101008.25;;;3.29;94.81
78485;BME280;67773;50.806;8.776;2024-01-30T10:17:44;100996.88;;;3.16;95.15
78485;BME280;67773;50.806;8.776;2024-01-30T10:20:10;100996.00;;;3.22;93.48
78485;BME280;67773;50.806;8.776;2024-01-30T10:22:36;100983.75;;;3.21;93.93
78485;BME280;67773;50.806;8.776;2024-01-30T10:25:01;100988.97;;;3.11;95.08
78485;BME280;67773;50.806;8.776;2024-01-30T10:27:27;100991.63;;;3.22;95.10
78485;BME280;67773;50.806;8.776;2024-01-30T10:29:52;100978.50;;;3.45;93.72
78485;BME280;67773;50.806;8.776;2024-01-30T10:32:19;100974.13;;;3.18;95.76
78485;BME280;67773;50.806;8.776;2024-01-30T10:34:44;100978.50;;;3.17;95.54
78485;BME280;67773;50.806;8.776;2024-01-30T10:37:10;100985.50;;;3.06;96.72
78485;BME280;67773;50.806;8.776;2024-01-30T10:39:43;100980.22;;;2.91;97.95
78485;BME280;67773;50.806;8.776;2024-01-30T10:42:18;100985.47;;;2.76;98.03
78485;BME280;67773;50.806;8.776;2024-01-30T10:47:12;100982.84;;;3.12;97.47
78485;BME280;67773;50.806;8.776;2024-01-30T10:49:41;100973.25;;;3.19;96.81
78485;BME280;67773;50.806;8.776;2024-01-30T10:52:09;100976.75;;;3.38;96.65
78485;BME280;67773;50.806;8.776;2024-01-30T10:54:36;100971.50;;;3.41;96.79
78485;BME280;67773;50.806;8.776;2024-01-30T10:57:01;100973.25;;;3.28;96.82
78485;BME280;67773;50.806;8.776;2024-01-30T10:59:29;100982.88;;;3.46;96.22
78485;BME280;67773;50.806;8.776;2024-01-30T11:01:57;100982.88;;;3.49;95.67
78485;BME280;67773;50.806;8.776;2024-01-30T11:04:23;100979.38;;;3.41;95.87
78485;BME280;67773;50.806;8.776;2024-01-30T11:06:50;100972.31;;;3.72;96.00
78485;BME280;67773;50.806;8.776;2024-01-30T11:09:17;100958.22;;;4.00;93.77
78485;BME280;67773;50.806;8.776;2024-01-30T11:11:56;100964.94;;;4.64;92.28
78485;BME280;67773;50.806;8.776;2024-01-30T11:14:29;100964.91;;;4.67;90.40
78485;BME280;67773;50.806;8.776;2024-01-30T11:16:58;100964.72;;;4.96;89.73
78485;BME280;67773;50.806;8.776;2024-01-30T11:19:25;100965.47;;;5.10;88.21
78485;BME280;67773;50.806;8.776;2024-01-30T11:21:52;100958.53;;;5.02;88.90
78485;BME280;67773;50.806;8.776;2024-01-30T11:24:22;100968.09;;;5.10;87.47
78485;BME280;67773;50.806;8.776;2024-01-30T11:27:00;100970.88;;;4.89;88.13
78485;BME280;67773;50.806;8.776;2024-01-30T11:29:29;100970.91;;;4.87;89.38
78485;BME280;67773;50.806;8.776;2024-01-30T11:31:55;100958.47;;;5.11;87.92
78485;BME280;67773;50.806;8.776;2024-01-30T11:34:21;100958.28;;;5.32;88.07
78485;BME280;67773;50.806;8.776;2024-01-30T11:37:09;100952.16;;;6.15;84.49
78485;BME280;67773;50.806;8.776;2024-01-30T11:39:36;100953.28;;;6.61;81.39
78485;BME280;67773;50.806;8.776;2024-01-30T11:42:03;100956.53;;;7.34;78.47
78485;BME280;67773;50.806;8.776;2024-01-30T11:44:30;100956.03;;;7.12;78.57
78485;BME280;67773;50.806;8.776;2024-01-30T11:46:55;100945.69;;;7.00;78.41
78485;BME280;67773;50.806;8.776;2024-01-30T11:49:23;100951.69;;;7.10;79.26
78485;BME280;67773;50.806;8.776;2024-01-30T11:51:48;100950.56;;;6.68;79.78
78485;BME280;67773;50.806;8.776;2024-01-30T11:54:15;100948.56;;;6.20;81.56
78485;BME280;67773;50.806;8.776;2024-01-30T11:56:41;100943.69;;;5.87;84.57
78485;BME280;67773;50.806;8.776;2024-01-30T11:59:07;100942.94;;;5.75;84.98
78485;BME280;67773;50.806;8.776;2024-01-30T12:01:32;100947.25;;;5.81;86.00
78485;BME280;67773;50.806;8.776;2024-01-30T12:03:59;100940.59;;;6.26;85.10
78485;BME280;67773;50.806;8.776;2024-01-30T12:06:24;100946.75;;;6.27;84.18
78485;BME280;67773;50.806;8.776;2024-01-30T12:09:00;100929.56;;;5.95;84.81
78485;BME280;67773;50.806;8.776;2024-01-30T12:11:26;100944.34;;;6.08;85.19
78485;BME280;67773;50.806;8.776;2024-01-30T12:13:52;100939.50;;;6.41;84.68
78485;BME280;67773;50.806;8.776;2024-01-30T12:16:18;100940.81;;;6.08;85.40
78485;BME280;67773;50.806;8.776;2024-01-30T12:18:44;100938.22;;;6.03;86.22
78485;BME280;67773;50.806;8.776;2024-01-30T12:21:09;100936.69;;;5.83;86.47
78485;BME280;67773;50.806;8.776;2024-01-30T12:23:35;100939.13;;;6.02;86.64
78485;BME280;67773;50.806;8.776;2024-01-30T12:26:01;100923.75;;;6.35;85.31
78485;BME280;67773;50.806;8.776;2024-01-30T12:28:27;100926.38;;;6.38;83.25
78485;BME280;67773;50.806;8.776;2024-01-30T12:30:56;100929.09;;;6.32;84.34
78485;BME280;67773;50.806;8.776;2024-01-30T12:33:26;100931.00;;;6.21;85.31
78485;BME280;67773;50.806;8.776;2024-01-30T12:35:51;100928.56;;;6.05;86.01
78485;BME280;67773;50.806;8.776;2024-01-30T12:38:17;100918.19;;;5.90;86.89
78485;BME280;67773;50.806;8.776;2024-01-30T12:40:43;100924.50;;;5.74;87.65